sensor_id;sensor_type;location;lat;lon;timestamp;P1;durP1;ratioP1;P2;durP2;ratioP2
67528;SDS011;54366;51.980;5.856;2024-02-21T00:01:16;15.40;;;10.65;;
67528;SDS011;54366;51.980;5.856;2024-02-21T00:03:43;15.02;;;10.07;;
67528;SDS011;54366;51.980;5.856;2024-02-21T00:06:10;13.13;;;9.15;;
67528;SDS011;54366;51.980;5.856;2024-02-21T00:08:36;11.68;;;7.30;;
67528;SDS011;54366;51.980;5.856;2024-02-21T00:11:02;16.60;;;10.25;;
67528;SDS011;54366;51.980;5.856;2024-02-21T00:13:29;13.52;;;9.27;;
67528;SDS011;54366;51.980;5.856;2024-02-21T00:15:55;11.20;;;8.57;;
67528;SDS011;54366;51.980;5.856;2024-02-21T00:18:22;15.40;;;9.48;;
67528;SDS011;54366;51.980;5.856;2024-02-21T00:20:48;13.13;;;8.43;;
67528;SDS011;54366;51.980;5.856;2024-02-21T00:23:14;16.20;;;10.10;;
67528;SDS011;54366;51.980;5.856;2024-02-21T00:25:40;15.45;;;10.43;;
67528;SDS011;54366;51.980;5.856;2024-02-21T00:28:07;16.75;;;10.32;;
67528;SDS011;54366;51.980;5.856;2024-02-21T00:30:33;22.67;;;12.02;;
67528;SDS011;54366;51.980;5.856;2024-02-21T00:32:59;13.38;;;9.50;;
67528;SDS011;54366;51.980;5.856;2024-02-21T00:35:26;14.02;;;9.73;;
67528;SDS011;54366;51.980;5.856;2024-02-21T00:37:52;12.68;;;8.85;;
67528;SDS011;54366;51.980;5.856;2024-02-21T00:40:18;15.23;;;9.38;;
67528;SDS011;54366;51.980;5.856;2024-02-21T00:42:46;11.48;;;7.78;;
67528;SDS011;54366;51.980;5.856;2024-02-21T00:45:13;10.13;;;7.95;;
67528;SDS011;54366;51.980;5.856;2024-02-21T00:47:39;11.00;;;8.25;;
67528;SDS011;54366;51.980;5.856;2024-02-21T00:50:06;13.25;;;8.05;;
67528;SDS011;54366;51.980;5.856;2024-02-21T00:52:33;13.65;;;8.93;;
67528;SDS011;54366;51.980;5.856;2024-02-21T00:54:59;15.32;;;9.95;;
67528;SDS011;54366;51.980;5.856;2024-02-21T00:57:25;14.13;;;10.35;;
67528;SDS011;54366;51.980;5.856;2024-02-21T00:59:52;12.60;;;8.57;;
67528;SDS011;54366;51.980;5.856;2024-02-21T01:02:18;10.10;;;8.40;;
67528;SDS011;54366;51.980;5.856;2024-02-21T01:04:44;13.07;;;7.80;;
67528;SDS011;54366;51.980;5.856;2024-02-21T01:07:11;10.85;;;7.45;;
67528;SDS011;54366;51.980;5.856;2024-02-21T01:09:37;13.98;;;8.63;;
67528;SDS011;54366;51.980;5.856;2024-02-21T01:12:03;12.98;;;9.07;;
67528;SDS011;54366;51.980;5.856;2024-02-21T01:14:30;9.90;;;6.93;;
67528;SDS011;54366;51.980;5.856;2024-02-21T01:16:56;15.85;;;10.48;;
67528;SDS011;54366;51.980;5.856;2024-02-21T01:19:23;13.07;;;9.20;;
67528;SDS011;54366;51.980;5.856;2024-02-21T01:21:49;9.68;;;7.20;;
67528;SDS011;54366;51.980;5.856;2024-02-21T01:24:15;12.07;;;8.27;;
67528;SDS011;54366;51.980;5.856;2024-02-21T01:26:42;13.32;;;7.85;;
67528;SDS011;54366;51.980;5.856;2024-02-21T01:29:08;11.38;;;8.13;;
67528;SDS011;54366;51.980;5.856;2024-02-21T01:31:34;15.15;;;9.85;;
67528;SDS011;54366;51.980;5.856;2024-02-21T01:34:01;11.50;;;8.27;;
67528;SDS011;54366;51.980;5.856;2024-02-21T01:36:27;11.95;;;8.18;;
67528;SDS011;54366;51.980;5.856;2024-02-21T01:38:53;9.23;;;7.15;;
67528;SDS011;54366;51.980;5.856;2024-02-21T01:41:19;10.23;;;7.25;;
67528;SDS011;54366;51.980;5.856;2024-02-21T01:43:46;10.20;;;7.47;;
67528;SDS011;54366;51.980;5.856;2024-02-21T01:46:12;11.32;;;7.45;;
67528;SDS011;54366;51.980;5.856;2024-02-21T01:48:38;14.75;;;8.93;;
67528;SDS011;54366;51.980;5.856;2024-02-21T01:51:05;11.40;;;7.30;;
67528;SDS011;54366;51.980;5.856;2024-02-21T01:53:36;10.27;;;7.60;;
67528;SDS011;54366;51.980;5.856;2024-02-21T01:56:05;8.00;;;6.60;;
67528;SDS011;54366;51.980;5.856;2024-02-21T01:58:34;9.43;;;6.93;;
67528;SDS011;54366;51.980;5.856;2024-02-21T02:01:03;9.00;;;7.00;;
67528;SDS011;54366;51.980;5.856;2024-02-21T02:03:29;9.70;;;7.00;;
67528;SDS011;54366;51.980;5.856;2024-02-21T02:05:56;13.02;;;7.88;;
67528;SDS011;54366;51.980;5.856;2024-02-21T02:08:22;11.38;;;6.88;;
67528;SDS011;54366;51.980;5.856;2024-02-21T02:10:49;12.40;;;7.15;;
67528;SDS011;54366;51.980;5.856;2024-02-21T02:13:16;12.63;;;7.47;;
67528;SDS011;54366;51.980;5.856;2024-02-21T02:15:42;8.00;;;6.35;;
67528;SDS011;54366;51.980;5.856;2024-02-21T02:18:10;9.68;;;6.38;;
67528;SDS011;54366;51.980;5.856;2024-02-21T02:20:37;7.97;;;5.20;;
67528;SDS011;54366;51.980;5.856;2024-02-21T02:23:08;9.63;;;6.97;;
67528;SDS011;54366;51.980;5.856;2024-02-21T02:25:37;7.18;;;5.53;;
67528;SDS011;54366;51.980;5.856;2024-02-21T02:28:04;7.30;;;5.45;;
67528;SDS011;54366;51.980;5.856;2024-02-21T02:30:34;8.65;;;6.05;;
67528;SDS011;54366;51.980;5.856;2024-02-21T02:33:02;6.70;;;6.00;;
67528;SDS011;54366;51.980;5.856;2024-02-21T02:35:29;7.38;;;5.43;;
67528;SDS011;54366;51.980;5.856;2024-02-21T02:37:55;9.27;;;6.40;;
67528;SDS011;54366;51.980;5.856;2024-02-21T02:40:22;9.98;;;6.32;;
67528;SDS011;54366;51.980;5.856;2024-02-21T02:42:48;12.25;;;7.40;;
67528;SDS011;54366;51.980;5.856;2024-02-21T02:45:15;10.10;;;7.07;;
67528;SDS011;54366;51.980;5.856;2024-02-21T02:47:43;9.43;;;7.07;;
67528;SDS011;54366;51.980;5.856;2024-02-21T02:50:11;7.38;;;6.03;;
67528;SDS011;54366;51.980;5.856;2024-02-21T02:52:38;11.05;;;7.40;;
67528;SDS011;54366;51.980;5.856;2024-02-21T02:55:04;9.82;;;7.68;;
67528;SDS011;54366;51.980;5.856;2024-02-21T02:57:31;10.50;;;7.70;;
67528;SDS011;54366;51.980;5.856;2024-02-21T02:59:58;12.93;;;8.75;;
67528;SDS011;54366;51.980;5.856;2024-02-21T03:02:24;17.05;;;9.40;;
67528;SDS011;54366;51.980;5.856;2024-02-21T03:04:51;10.90;;;8.65;;
67528;SDS011;54366;51.980;5.856;2024-02-21T03:07:17;10.15;;;7.25;;
67528;SDS011;54366;51.980;5.856;2024-02-21T03:09:43;10.25;;;7.07;;
67528;SDS011;54366;51.980;5.856;2024-02-21T03:12:10;8.02;;;6.20;;
67528;SDS011;54366;51.980;5.856;2024-02-21T03:14:36;12.13;;;8.18;;
67528;SDS011;54366;51.980;5.856;2024-02-21T03:17:04;13.07;;;7.38;;
67528;SDS011;54366;51.980;5.856;2024-02-21T03:19:30;11.73;;;6.75;;
67528;SDS011;54366;51.980;5.856;2024-02-21T03:21:57;7.65;;;5.80;;
67528;SDS011;54366;51.980;5.856;2024-02-21T03:24:23;10.73;;;7.95;;
67528;SDS011;54366;51.980;5.856;2024-02-21T03:26:49;11.25;;;6.80;;
67528;SDS011;54366;51.980;5.856;2024-02-21T03:29:16;11.30;;;7.07;;
67528;SDS011;54366;51.980;5.856;2024-02-21T03:31:42;16.05;;;8.43;;
67528;SDS011;54366;51.980;5.856;2024-02-21T03:34:12;9.38;;;7.07;;
67528;SDS011;54366;51.980;5.856;2024-02-21T03:36:38;7.63;;;6.22;;
67528;SDS011;54366;51.980;5.856;2024-02-21T03:39:05;9.45;;;5.55;;
67528;SDS011;54366;51.980;5.856;2024-02-21T03:41:31;10.60;;;6.80;;
67528;SDS011;54366;51.980;5.856;2024-02-21T03:43:57;8.02;;;5.93;;
67528;SDS011;54366;51.980;5.856;2024-02-21T03:46:24;12.55;;;7.53;;
67528;SDS011;54366;51.980;5.856;2024-02-21T03:48:50;9.25;;;5.70;;
67528;SDS011;54366;51.980;5.856;2024-02-21T03:51:17;7.07;;;5.25;;
67528;SDS011;54366;51.980;5.856;2024-02-21T03:53:43;6.55;;;4.93;;
67528;SDS011;54366;51.980;5.856;2024-02-21T03:56:09;4.85;;;4.35;;
67528;SDS011;54366;51.980;5.856;2024-02-21T03:58:36;6.82;;;5.07;;
67528;SDS011;54366;51.980;5.856;2024-02-21T04:01:02;6.53;;;4.63;;
67528;SDS011;54366;51.980;5.856;2024-02-21T04:03:30;6.13;;;4.43;;
67528;SDS011;54366;51.980;5.856;2024-02-21T04:05:56;7.45;;;5.00;;
67528;SDS011;54366;51.980;5.856;2024-02-21T04:08:23;7.60;;;5.10;;
67528;SDS011;54366;51.980;5.856;2024-02-21T04:10:49;7.93;;;5.18;;
67528;SDS011;54366;51.980;5.856;2024-02-21T04:13:15;5.75;;;4.47;;
67528;SDS011;54366;51.980;5.856;2024-02-21T04:15:42;9.48;;;6.00;;
67528;SDS011;54366;51.980;5.856;2024-02-21T04:18:08;6.45;;;4.30;;
67528;SDS011;54366;51.980;5.856;2024-02-21T04:20:34;8.93;;;5.60;;
67528;SDS011;54366;51.980;5.856;2024-02-21T04:23:01;7.70;;;4.65;;
67528;SDS011;54366;51.980;5.856;2024-02-21T04:25:27;6.85;;;4.38;;
67528;SDS011;54366;51.980;5.856;2024-02-21T04:27:53;6.13;;;3.88;;
67528;SDS011;54366;51.980;5.856;2024-02-21T04:30:20;6.32;;;4.68;;
67528;SDS011;54366;51.980;5.856;2024-02-21T04:32:46;5.07;;;3.67;;
67528;SDS011;54366;51.980;5.856;2024-02-21T04:35:12;5.60;;;3.65;;
67528;SDS011;54366;51.980;5.856;2024-02-21T04:37:38;4.72;;;3.28;;
67528;SDS011;54366;51.980;5.856;2024-02-21T04:40:05;4.40;;;3.47;;
67528;SDS011;54366;51.980;5.856;2024-02-21T04:42:32;4.38;;;2.85;;
67528;SDS011;54366;51.980;5.856;2024-02-21T04:44:58;6.40;;;4.13;;
67528;SDS011;54366;51.980;5.856;2024-02-21T04:47:26;4.97;;;3.60;;
67528;SDS011;54366;51.980;5.856;2024-02-21T04:49:52;4.43;;;3.20;;
67528;SDS011;54366;51.980;5.856;2024-02-21T04:52:19;6.53;;;3.92;;
67528;SDS011;54366;51.980;5.856;2024-02-21T04:54:45;5.78;;;4.18;;
67528;SDS011;54366;51.980;5.856;2024-02-21T04:57:11;8.30;;;4.28;;
67528;SDS011;54366;51.980;5.856;2024-02-21T04:59:45;9.45;;;5.28;;
67528;SDS011;54366;51.980;5.856;2024-02-21T05:02:13;9.38;;;4.70;;
67528;SDS011;54366;51.980;5.856;2024-02-21T05:04:40;6.45;;;4.50;;
67528;SDS011;54366;51.980;5.856;2024-02-21T05:07:07;7.38;;;4.82;;
67528;SDS011;54366;51.980;5.856;2024-02-21T05:09:33;6.75;;;4.15;;
67528;SDS011;54366;51.980;5.856;2024-02-21T05:12:00;6.97;;;4.38;;
67528;SDS011;54366;51.980;5.856;2024-02-21T05:14:26;5.78;;;3.88;;
67528;SDS011;54366;51.980;5.856;2024-02-21T05:16:53;8.18;;;4.32;;
67528;SDS011;54366;51.980;5.856;2024-02-21T05:19:19;10.27;;;4.78;;
67528;SDS011;54366;51.980;5.856;2024-02-21T05:21:45;8.20;;;5.32;;
67528;SDS011;54366;51.980;5.856;2024-02-21T05:24:12;6.82;;;5.22;;
67528;SDS011;54366;51.980;5.856;2024-02-21T05:26:38;6.95;;;5.00;;
67528;SDS011;54366;51.980;5.856;2024-02-21T05:29:04;6.63;;;5.05;;
67528;SDS011;54366;51.980;5.856;2024-02-21T05:34:21;7.90;;;5.72;;
67528;SDS011;54366;51.980;5.856;2024-02-21T05:36:47;6.90;;;5.30;;
67528;SDS011;54366;51.980;5.856;2024-02-21T05:39:17;8.23;;;6.28;;
67528;SDS011;54366;51.980;5.856;2024-02-21T05:41:43;9.20;;;6.72;;
67528;SDS011;54366;51.980;5.856;2024-02-21T05:44:10;11.43;;;8.23;;
67528;SDS011;54366;51.980;5.856;2024-02-21T05:46:37;9.73;;;6.82;;
67528;SDS011;54366;51.980;5.856;2024-02-21T05:49:03;9.40;;;7.05;;
67528;SDS011;54366;51.980;5.856;2024-02-21T05:51:32;9.82;;;7.00;;
67528;SDS011;54366;51.980;5.856;2024-02-21T05:54:00;10.40;;;7.13;;
67528;SDS011;54366;51.980;5.856;2024-02-21T05:56:26;11.05;;;7.85;;
67528;SDS011;54366;51.980;5.856;2024-02-21T05:58:52;11.20;;;7.75;;
67528;SDS011;54366;51.980;5.856;2024-02-21T06:01:18;11.75;;;7.47;;
67528;SDS011;54366;51.980;5.856;2024-02-21T06:03:46;10.90;;;7.90;;
67528;SDS011;54366;51.980;5.856;2024-02-21T06:06:13;13.93;;;9.85;;
67528;SDS011;54366;51.980;5.856;2024-02-21T06:08:40;10.13;;;7.80;;
67528;SDS011;54366;51.980;5.856;2024-02-21T06:11:06;11.07;;;7.18;;
67528;SDS011;54366;51.980;5.856;2024-02-21T06:13:33;13.82;;;8.88;;
67528;SDS011;54366;51.980;5.856;2024-02-21T06:15:59;11.77;;;8.15;;
67528;SDS011;54366;51.980;5.856;2024-02-21T06:18:25;11.73;;;7.68;;
67528;SDS011;54366;51.980;5.856;2024-02-21T06:20:51;10.40;;;7.40;;
67528;SDS011;54366;51.980;5.856;2024-02-21T06:23:18;13.27;;;8.57;;
67528;SDS011;54366;51.980;5.856;2024-02-21T06:25:44;11.98;;;7.95;;
67528;SDS011;54366;51.980;5.856;2024-02-21T06:28:13;11.68;;;8.15;;
67528;SDS011;54366;51.980;5.856;2024-02-21T06:30:39;9.15;;;7.00;;
67528;SDS011;54366;51.980;5.856;2024-02-21T06:33:06;9.13;;;6.25;;
67528;SDS011;54366;51.980;5.856;2024-02-21T06:35:33;9.55;;;6.72;;
67528;SDS011;54366;51.980;5.856;2024-02-21T06:38:00;12.52;;;6.95;;
67528;SDS011;54366;51.980;5.856;2024-02-21T06:40:26;10.73;;;7.25;;
67528;SDS011;54366;51.980;5.856;2024-02-21T06:42:52;9.57;;;6.47;;
67528;SDS011;54366;51.980;5.856;2024-02-21T06:45:19;9.85;;;6.40;;
67528;SDS011;54366;51.980;5.856;2024-02-21T06:47:45;11.40;;;6.10;;
67528;SDS011;54366;51.980;5.856;2024-02-21T06:50:12;9.80;;;6.13;;
67528;SDS011;54366;51.980;5.856;2024-02-21T06:52:39;10.20;;;6.93;;
67528;SDS011;54366;51.980;5.856;2024-02-21T06:55:05;10.80;;;6.70;;
67528;SDS011;54366;51.980;5.856;2024-02-21T06:57:32;12.45;;;6.88;;
67528;SDS011;54366;51.980;5.856;2024-02-21T06:59:58;10.02;;;6.57;;
67528;SDS011;54366;51.980;5.856;2024-02-21T07:02:24;11.20;;;6.60;;
67528;SDS011;54366;51.980;5.856;2024-02-21T07:04:51;7.43;;;5.55;;
67528;SDS011;54366;51.980;5.856;2024-02-21T07:07:17;10.18;;;6.13;;
67528;SDS011;54366;51.980;5.856;2024-02-21T07:09:43;8.05;;;5.63;;
67528;SDS011;54366;51.980;5.856;2024-02-21T07:12:10;10.77;;;7.25;;
67528;SDS011;54366;51.980;5.856;2024-02-21T07:14:36;9.07;;;6.43;;
67528;SDS011;54366;51.980;5.856;2024-02-21T07:17:02;10.98;;;6.95;;
67528;SDS011;54366;51.980;5.856;2024-02-21T07:19:29;12.25;;;7.78;;
67528;SDS011;54366;51.980;5.856;2024-02-21T07:21:56;12.35;;;6.50;;
67528;SDS011;54366;51.980;5.856;2024-02-21T07:24:22;11.38;;;6.47;;
67528;SDS011;54366;51.980;5.856;2024-02-21T07:26:49;15.27;;;7.75;;
67528;SDS011;54366;51.980;5.856;2024-02-21T07:29:15;12.52;;;7.82;;
67528;SDS011;54366;51.980;5.856;2024-02-21T07:31:42;9.00;;;6.55;;
67528;SDS011;54366;51.980;5.856;2024-02-21T07:34:08;11.35;;;7.18;;
67528;SDS011;54366;51.980;5.856;2024-02-21T07:36:35;12.00;;;7.50;;
67528;SDS011;54366;51.980;5.856;2024-02-21T07:39:03;10.32;;;6.78;;
67528;SDS011;54366;51.980;5.856;2024-02-21T07:41:30;8.65;;;6.93;;
67528;SDS011;54366;51.980;5.856;2024-02-21T07:43:57;9.20;;;6.72;;
67528;SDS011;54366;51.980;5.856;2024-02-21T07:46:23;8.32;;;6.32;;
67528;SDS011;54366;51.980;5.856;2024-02-21T07:48:50;9.02;;;6.25;;
67528;SDS011;54366;51.980;5.856;2024-02-21T07:51:16;12.75;;;7.15;;
67528;SDS011;54366;51.980;5.856;2024-02-21T07:53:44;11.98;;;7.25;;
67528;SDS011;54366;51.980;5.856;2024-02-21T07:56:11;12.10;;;7.45;;
67528;SDS011;54366;51.980;5.856;2024-02-21T07:58:38;7.55;;;6.07;;
67528;SDS011;54366;51.980;5.856;2024-02-21T08:01:04;9.85;;;6.72;;
67528;SDS011;54366;51.980;5.856;2024-02-21T08:03:30;11.20;;;7.20;;
67528;SDS011;54366;51.980;5.856;2024-02-21T08:05:57;9.68;;;7.03;;
67528;SDS011;54366;51.980;5.856;2024-02-21T08:08:23;10.25;;;7.15;;
67528;SDS011;54366;51.980;5.856;2024-02-21T08:10:50;10.82;;;6.65;;
67528;SDS011;54366;51.980;5.856;2024-02-21T08:13:17;14.68;;;7.63;;
67528;SDS011;54366;51.980;5.856;2024-02-21T08:15:43;10.70;;;7.28;;
67528;SDS011;54366;51.980;5.856;2024-02-21T08:18:09;11.82;;;7.65;;
67528;SDS011;54366;51.980;5.856;2024-02-21T08:20:36;8.30;;;6.43;;
67528;SDS011;54366;51.980;5.856;2024-02-21T08:23:02;11.95;;;7.13;;
67528;SDS011;54366;51.980;5.856;2024-02-21T08:25:29;12.35;;;7.72;;
67528;SDS011;54366;51.980;5.856;2024-02-21T08:27:57;11.48;;;7.97;;
67528;SDS011;54366;51.980;5.856;2024-02-21T08:30:24;11.35;;;7.35;;
67528;SDS011;54366;51.980;5.856;2024-02-21T08:32:51;12.65;;;7.35;;
67528;SDS011;54366;51.980;5.856;2024-02-21T08:35:17;9.75;;;7.57;;
67528;SDS011;54366;51.980;5.856;2024-02-21T08:37:44;12.95;;;8.32;;
67528;SDS011;54366;51.980;5.856;2024-02-21T08:40:14;10.85;;;7.65;;
67528;SDS011;54366;51.980;5.856;2024-02-21T08:42:43;12.30;;;7.95;;
67528;SDS011;54366;51.980;5.856;2024-02-21T08:45:10;12.15;;;7.78;;
67528;SDS011;54366;51.980;5.856;2024-02-21T08:47:38;10.23;;;7.32;;
67528;SDS011;54366;51.980;5.856;2024-02-21T08:50:05;10.30;;;7.57;;
67528;SDS011;54366;51.980;5.856;2024-02-21T08:52:32;12.65;;;8.30;;
67528;SDS011;54366;51.980;5.856;2024-02-21T08:54:59;9.90;;;7.30;;
67528;SDS011;54366;51.980;5.856;2024-02-21T08:57:25;13.57;;;7.70;;
67528;SDS011;54366;51.980;5.856;2024-02-21T08:59:51;11.95;;;8.70;;
67528;SDS011;54366;51.980;5.856;2024-02-21T09:02:18;12.57;;;8.35;;
67528;SDS011;54366;51.980;5.856;2024-02-21T09:04:44;12.20;;;8.30;;
67528;SDS011;54366;51.980;5.856;2024-02-21T09:07:10;13.75;;;7.93;;
67528;SDS011;54366;51.980;5.856;2024-02-21T09:09:37;12.15;;;8.63;;
67528;SDS011;54366;51.980;5.856;2024-02-21T09:12:06;13.20;;;8.13;;
67528;SDS011;54366;51.980;5.856;2024-02-21T09:14:33;11.88;;;8.30;;
67528;SDS011;54366;51.980;5.856;2024-02-21T09:17:00;10.13;;;7.90;;
67528;SDS011;54366;51.980;5.856;2024-02-21T09:19:26;11.10;;;7.88;;
67528;SDS011;54366;51.980;5.856;2024-02-21T09:21:52;11.68;;;7.90;;
67528;SDS011;54366;51.980;5.856;2024-02-21T09:24:19;11.18;;;7.75;;
67528;SDS011;54366;51.980;5.856;2024-02-21T09:26:45;10.43;;;7.60;;
67528;SDS011;54366;51.980;5.856;2024-02-21T09:29:11;14.88;;;7.85;;
67528;SDS011;54366;51.980;5.856;2024-02-21T09:31:38;11.88;;;6.95;;
67528;SDS011;54366;51.980;5.856;2024-02-21T09:34:04;9.90;;;7.00;;
67528;SDS011;54366;51.980;5.856;2024-02-21T09:36:30;8.35;;;6.45;;
67528;SDS011;54366;51.980;5.856;2024-02-21T09:38:57;10.52;;;6.57;;
67528;SDS011;54366;51.980;5.856;2024-02-21T09:41:27;10.77;;;7.30;;
67528;SDS011;54366;51.980;5.856;2024-02-21T09:43:53;10.18;;;7.13;;
67528;SDS011;54366;51.980;5.856;2024-02-21T09:46:22;11.60;;;7.35;;
67528;SDS011;54366;51.980;5.856;2024-02-21T09:51:41;9.35;;;6.65;;
67528;SDS011;54366;51.980;5.856;2024-02-21T09:54:09;9.32;;;6.78;;
67528;SDS011;54366;51.980;5.856;2024-02-21T09:56:35;9.20;;;5.95;;
67528;SDS011;54366;51.980;5.856;2024-02-21T09:59:01;8.95;;;6.53;;
67528;SDS011;54366;51.980;5.856;2024-02-21T10:01:31;7.93;;;6.15;;
67528;SDS011;54366;51.980;5.856;2024-02-21T10:03:58;7.90;;;6.28;;
67528;SDS011;54366;51.980;5.856;2024-02-21T10:06:24;7.72;;;6.00;;
67528;SDS011;54366;51.980;5.856;2024-02-21T10:08:53;7.30;;;6.00;;
67528;SDS011;54366;51.980;5.856;2024-02-21T10:11:25;8.02;;;5.40;;
67528;SDS011;54366;51.980;5.856;2024-02-21T10:14:02;7.40;;;5.55;;
67528;SDS011;54366;51.980;5.856;2024-02-21T10:16:32;7.20;;;5.60;;
67528;SDS011;54366;51.980;5.856;2024-02-21T10:18:59;6.78;;;5.72;;
67528;SDS011;54366;51.980;5.856;2024-02-21T10:21:26;8.52;;;5.78;;
67528;SDS011;54366;51.980;5.856;2024-02-21T10:23:52;6.93;;;5.30;;
67528;SDS011;54366;51.980;5.856;2024-02-21T10:26:19;6.13;;;5.53;;
67528;SDS011;54366;51.980;5.856;2024-02-21T10:28:46;7.05;;;5.70;;
67528;SDS011;54366;51.980;5.856;2024-02-21T10:31:26;5.75;;;5.03;;
67528;SDS011;54366;51.980;5.856;2024-02-21T10:33:54;6.05;;;4.93;;
67528;SDS011;54366;51.980;5.856;2024-02-21T10:36:24;5.82;;;4.82;;
67528;SDS011;54366;51.980;5.856;2024-02-21T10:38:51;5.90;;;4.47;;
67528;SDS011;54366;51.980;5.856;2024-02-21T10:41:19;4.93;;;4.43;;
67528;SDS011;54366;51.980;5.856;2024-02-21T10:43:49;5.70;;;4.10;;
67528;SDS011;54366;51.980;5.856;2024-02-21T10:46:22;4.82;;;4.32;;
67528;SDS011;54366;51.980;5.856;2024-02-21T10:48:57;4.57;;;3.95;;
67528;SDS011;54366;51.980;5.856;2024-02-21T10:51:43;4.72;;;3.97;;
67528;SDS011;54366;51.980;5.856;2024-02-21T10:54:16;4.45;;;4.05;;
67528;SDS011;54366;51.980;5.856;2024-02-21T10:57:21;4.43;;;3.95;;
67528;SDS011;54366;51.980;5.856;2024-02-21T10:59:49;5.70;;;5.10;;
67528;SDS011;54366;51.980;5.856;2024-02-21T11:02:16;4.40;;;4.00;;
67528;SDS011;54366;51.980;5.856;2024-02-21T11:04:43;5.50;;;4.88;;
67528;SDS011;54366;51.980;5.856;2024-02-21T11:07:11;6.28;;;4.88;;
67528;SDS011;54366;51.980;5.856;2024-02-21T11:09:38;5.15;;;4.65;;
67528;SDS011;54366;51.980;5.856;2024-02-21T11:12:05;6.57;;;5.00;;
67528;SDS011;54366;51.980;5.856;2024-02-21T11:14:32;4.72;;;4.13;;
67528;SDS011;54366;51.980;5.856;2024-02-21T11:16:59;6.05;;;5.13;;
67528;SDS011;54366;51.980;5.856;2024-02-21T11:19:26;6.65;;;5.50;;
67528;SDS011;54366;51.980;5.856;2024-02-21T11:21:54;6.13;;;5.50;;
67528;SDS011;54366;51.980;5.856;2024-02-21T11:24:40;6.90;;;4.97;;
67528;SDS011;54366;51.980;5.856;2024-02-21T11:29:59;7.63;;;5.90;;
67528;SDS011;54366;51.980;5.856;2024-02-21T11:32:26;9.40;;;5.80;;
67528;SDS011;54366;51.980;5.856;2024-02-21T11:34:58;7.82;;;5.90;;
67528;SDS011;54366;51.980;5.856;2024-02-21T11:37:32;9.02;;;5.82;;
67528;SDS011;54366;51.980;5.856;2024-02-21T11:40:00;7.57;;;5.60;;
67528;SDS011;54366;51.980;5.856;2024-02-21T11:42:26;9.65;;;5.43;;
67528;SDS011;54366;51.980;5.856;2024-02-21T11:44:54;6.80;;;4.78;;
67528;SDS011;54366;51.980;5.856;2024-02-21T11:47:24;7.72;;;4.60;;
67528;SDS011;54366;51.980;5.856;2024-02-21T11:49:51;9.93;;;5.18;;
67528;SDS011;54366;51.980;5.856;2024-02-21T11:52:21;7.10;;;5.32;;
67528;SDS011;54366;51.980;5.856;2024-02-21T11:54:50;5.38;;;4.68;;
67528;SDS011;54366;51.980;5.856;2024-02-21T11:57:18;7.88;;;5.40;;
67528;SDS011;54366;51.980;5.856;2024-02-21T11:59:45;5.30;;;4.28;;
67528;SDS011;54366;51.980;5.856;2024-02-21T12:02:12;8.63;;;5.57;;
67528;SDS011;54366;51.980;5.856;2024-02-21T12:04:39;6.20;;;5.07;;
67528;SDS011;54366;51.980;5.856;2024-02-21T12:07:07;8.73;;;5.53;;
67528;SDS011;54366;51.980;5.856;2024-02-21T12:09:34;9.95;;;5.13;;
67528;SDS011;54366;51.980;5.856;2024-02-21T12:12:01;6.03;;;4.63;;
67528;SDS011;54366;51.980;5.856;2024-02-21T12:14:29;8.13;;;5.13;;
67528;SDS011;54366;51.980;5.856;2024-02-21T12:16:56;5.30;;;4.18;;
67528;SDS011;54366;51.980;5.856;2024-02-21T12:19:23;7.50;;;5.40;;
67528;SDS011;54366;51.980;5.856;2024-02-21T12:21:49;6.07;;;4.95;;
67528;SDS011;54366;51.980;5.856;2024-02-21T12:24:16;6.65;;;4.72;;
67528;SDS011;54366;51.980;5.856;2024-02-21T12:26:52;5.03;;;4.20;;
67528;SDS011;54366;51.980;5.856;2024-02-21T12:29:19;5.05;;;4.03;;
67528;SDS011;54366;51.980;5.856;2024-02-21T12:31:46;6.28;;;4.75;;
67528;SDS011;54366;51.980;5.856;2024-02-21T12:34:13;6.10;;;4.03;;
67528;SDS011;54366;51.980;5.856;2024-02-21T12:36:41;6.25;;;3.53;;
67528;SDS011;54366;51.980;5.856;2024-02-21T12:39:14;6.40;;;4.40;;
67528;SDS011;54366;51.980;5.856;2024-02-21T12:41:42;6.93;;;3.63;;
67528;SDS011;54366;51.980;5.856;2024-02-21T12:44:10;5.78;;;3.60;;
67528;SDS011;54366;51.980;5.856;2024-02-21T12:46:37;5.43;;;3.90;;
67528;SDS011;54366;51.980;5.856;2024-02-21T12:49:05;6.70;;;4.20;;
67528;SDS011;54366;51.980;5.856;2024-02-21T12:51:34;6.60;;;3.97;;
67528;SDS011;54366;51.980;5.856;2024-02-21T12:54:00;7.50;;;4.18;;
67528;SDS011;54366;51.980;5.856;2024-02-21T12:56:28;4.50;;;3.70;;
67528;SDS011;54366;51.980;5.856;2024-02-21T12:58:57;6.07;;;4.00;;
67528;SDS011;54366;51.980;5.856;2024-02-21T13:01:23;5.75;;;3.33;;
67528;SDS011;54366;51.980;5.856;2024-02-21T13:03:50;5.28;;;3.45;;
67528;SDS011;54366;51.980;5.856;2024-02-21T13:06:16;7.80;;;4.30;;
67528;SDS011;54366;51.980;5.856;2024-02-21T13:08:44;6.38;;;3.90;;
67528;SDS011;54366;51.980;5.856;2024-02-21T13:11:12;6.07;;;3.80;;
67528;SDS011;54366;51.980;5.856;2024-02-21T13:13:38;7.00;;;3.28;;
67528;SDS011;54366;51.980;5.856;2024-02-21T13:16:05;5.68;;;3.70;;
67528;SDS011;54366;51.980;5.856;2024-02-21T13:18:31;6.22;;;3.28;;
67528;SDS011;54366;51.980;5.856;2024-02-21T13:20:58;5.60;;;3.70;;
67528;SDS011;54366;51.980;5.856;2024-02-21T13:23:24;7.50;;;3.80;;
67528;SDS011;54366;51.980;5.856;2024-02-21T13:25:50;6.53;;;3.83;;
67528;SDS011;54366;51.980;5.856;2024-02-21T13:28:17;5.20;;;3.40;;
67528;SDS011;54366;51.980;5.856;2024-02-21T13:30:43;7.10;;;3.70;;
67528;SDS011;54366;51.980;5.856;2024-02-21T13:33:09;7.60;;;3.28;;
67528;SDS011;54366;51.980;5.856;2024-02-21T13:35:36;5.53;;;3.08;;
67528;SDS011;54366;51.980;5.856;2024-02-21T13:38:02;6.25;;;3.10;;
67528;SDS011;54366;51.980;5.856;2024-02-21T13:40:29;6.00;;;3.05;;
67528;SDS011;54366;51.980;5.856;2024-02-21T13:42:55;3.88;;;2.90;;
67528;SDS011;54366;51.980;5.856;2024-02-21T13:45:22;4.20;;;3.00;;
67528;SDS011;54366;51.980;5.856;2024-02-21T13:47:48;7.70;;;3.67;;
67528;SDS011;54366;51.980;5.856;2024-02-21T13:50:15;7.97;;;4.03;;
67528;SDS011;54366;51.980;5.856;2024-02-21T13:52:41;7.85;;;3.88;;
67528;SDS011;54366;51.980;5.856;2024-02-21T13:55:08;6.50;;;3.45;;
67528;SDS011;54366;51.980;5.856;2024-02-21T13:57:35;6.80;;;3.38;;
67528;SDS011;54366;51.980;5.856;2024-02-21T14:00:02;6.35;;;3.50;;
67528;SDS011;54366;51.980;5.856;2024-02-21T14:02:37;8.93;;;4.10;;
67528;SDS011;54366;51.980;5.856;2024-02-21T14:05:04;5.78;;;3.60;;
67528;SDS011;54366;51.980;5.856;2024-02-21T14:07:32;4.70;;;3.20;;
67528;SDS011;54366;51.980;5.856;2024-02-21T14:10:01;5.57;;;3.35;;
67528;SDS011;54366;51.980;5.856;2024-02-21T14:12:27;7.00;;;3.60;;
67528;SDS011;54366;51.980;5.856;2024-02-21T14:14:54;5.97;;;3.08;;
67528;SDS011;54366;51.980;5.856;2024-02-21T14:17:22;6.05;;;3.00;;
67528;SDS011;54366;51.980;5.856;2024-02-21T14:19:50;6.63;;;3.40;;
67528;SDS011;54366;51.980;5.856;2024-02-21T14:22:17;5.60;;;2.90;;
67528;SDS011;54366;51.980;5.856;2024-02-21T14:24:44;5.30;;;2.70;;
67528;SDS011;54366;51.980;5.856;2024-02-21T14:27:11;6.13;;;3.17;;
67528;SDS011;54366;51.980;5.856;2024-02-21T14:29:38;5.88;;;2.53;;
67528;SDS011;54366;51.980;5.856;2024-02-21T14:32:04;5.57;;;2.80;;
67528;SDS011;54366;51.980;5.856;2024-02-21T14:34:31;3.92;;;2.38;;
67528;SDS011;54366;51.980;5.856;2024-02-21T14:36:57;5.38;;;2.50;;
67528;SDS011;54366;51.980;5.856;2024-02-21T14:39:24;6.05;;;2.67;;
67528;SDS011;54366;51.980;5.856;2024-02-21T14:41:50;4.90;;;2.53;;
67528;SDS011;54366;51.980;5.856;2024-02-21T14:44:16;4.78;;;2.78;;
67528;SDS011;54366;51.980;5.856;2024-02-21T14:46:42;3.65;;;2.53;;
67528;SDS011;54366;51.980;5.856;2024-02-21T14:49:09;5.13;;;2.40;;
67528;SDS011;54366;51.980;5.856;2024-02-21T14:51:37;8.25;;;2.60;;